createdAt,value
2019-02-03T00:00:32.698Z,96.17
2019-02-03T00:01:33.328Z,96.08
2019-02-03T00:02:32.547Z,96.04
2019-02-03T00:03:32.767Z,95.95
2019-02-03T00:04:32.746Z,95.93
2019-02-03T00:05:32.546Z,95.98
2019-02-03T00:06:32.430Z,95.85
2019-02-03T00:07:32.817Z,95.7
2019-02-03T00:08:32.522Z,95.78
2019-02-03T00:09:32.398Z,95.61
2019-02-03T00:10:32.423Z,95.61
2019-02-03T00:11:32.604Z,95.72
2019-02-03T00:12:32.854Z,95.76
2019-02-03T00:13:32.649Z,95.8
2019-02-03T00:14:32.559Z,95.49
2019-02-03T00:15:32.428Z,95.48
2019-02-03T00:16:32.419Z,95.55
2019-02-03T00:17:32.354Z,95.2
2019-02-03T00:18:32.455Z,95.4
2019-02-03T00:19:32.797Z,95.25
2019-02-03T00:20:32.514Z,95.38
2019-02-03T00:21:32.430Z,95.5
2019-02-03T00:22:32.384Z,95.49
2019-02-03T00:23:32.393Z,95.44
2019-02-03T00:24:32.387Z,95.43
2019-02-03T00:25:32.480Z,95.23
2019-02-03T00:26:32.424Z,95.26
2019-02-03T00:27:32.425Z,95.32
2019-02-03T00:28:32.383Z,95.37
2019-02-03T00:29:32.495Z,95.27
2019-02-03T00:30:33.096Z,95.43
2019-02-03T00:31:32.581Z,95.49
2019-02-03T00:32:32.407Z,95.44
2019-02-03T00:33:32.535Z,95.18
2019-02-03T00:34:32.398Z,95.21
2019-02-03T00:35:33.391Z,95.26
2019-02-03T00:36:32.342Z,95.3
2019-02-03T00:37:32.572Z,95.48
2019-02-03T00:38:32.599Z,95.42
2019-02-03T00:39:32.395Z,95.28
2019-02-03T00:40:32.673Z,95.32
2019-02-03T00:41:32.550Z,95.31
2019-02-03T00:42:32.433Z,95.24
2019-02-03T00:43:32.486Z,95.31
2019-02-03T00:44:32.475Z,95.34
2019-02-03T00:45:32.773Z,95.33
2019-02-03T00:46:32.861Z,95.44
2019-02-03T00:47:32.511Z,95.36
2019-02-03T00:48:32.686Z,95.43
2019-02-03T00:49:32.377Z,95.27
2019-02-03T00:50:32.628Z,95.43
2019-02-03T00:51:32.428Z,95.25
2019-02-03T00:52:32.511Z,95.26
2019-02-03T00:53:32.353Z,95.26
2019-02-03T00:54:32.636Z,95.38
2019-02-03T00:55:32.754Z,95.19
2019-02-03T00:56:32.524Z,95.26
2019-02-03T00:57:32.579Z,95.2
2019-02-03T00:58:33.173Z,95.16
2019-02-03T00:59:32.302Z,95.06
2019-02-03T01:00:32.539Z,95.32
2019-02-03T01:01:32.591Z,95.12
2019-02-03T01:02:32.794Z,94.8
2019-02-03T01:03:34.125Z,94.87
2019-02-03T01:04:32.276Z,94.88
2019-02-03T01:05:32.466Z,94.73
2019-02-03T01:06:32.445Z,94.89
2019-02-03T01:07:32.287Z,94.89
2019-02-03T01:08:32.302Z,94.88
2019-02-03T01:09:33.845Z,94.89
2019-02-03T01:10:32.474Z,94.89
2019-02-03T01:11:32.342Z,94.62
2019-02-03T01:12:32.324Z,94.63
2019-02-03T01:13:32.765Z,94.62
2019-02-03T01:14:32.280Z,94.61
2019-02-03T01:15:32.688Z,94.76
2019-02-03T01:16:32.611Z,94.65
2019-02-03T01:17:32.303Z,94.71
2019-02-03T01:18:32.592Z,94.79
2019-02-03T01:19:32.387Z,94.78
2019-02-03T01:20:32.511Z,94.79
2019-02-03T01:21:34.130Z,94.51
2019-02-03T01:22:32.458Z,94.52
2019-02-03T01:23:32.651Z,94.79
2019-02-03T01:24:32.357Z,94.64
2019-02-03T01:25:32.521Z,94.55
2019-02-03T01:26:32.262Z,94.41
2019-02-03T01:27:32.444Z,94.52
2019-02-03T01:28:32.478Z,94.26
2019-02-03T01:29:32.876Z,94.31
2019-02-03T01:30:32.484Z,94.36
2019-02-03T01:31:32.402Z,94.4
2019-02-03T01:32:32.282Z,94.24
2019-02-03T01:33:32.410Z,94.41
2019-02-03T01:34:32.601Z,94.5
2019-02-03T01:35:32.313Z,94.38
2019-02-03T01:36:32.292Z,94.35
2019-02-03T01:37:39.259Z,94.29
2019-02-03T01:38:32.269Z,94.5
2019-02-03T01:39:32.940Z,94.08
2019-02-03T01:40:32.441Z,94.34
2019-02-03T01:41:32.353Z,94.15
2019-02-03T01:42:32.376Z,94.02
2019-02-03T01:43:32.259Z,94.13
2019-02-03T01:44:32.669Z,94.22
2019-02-03T01:45:32.371Z,94.21
2019-02-03T01:46:32.272Z,94.32
2019-02-03T01:47:32.280Z,94.21
2019-02-03T01:48:32.321Z,94.14
2019-02-03T01:49:32.496Z,94.4
2019-02-03T01:50:32.330Z,94.4
2019-02-03T01:51:32.255Z,94.25
2019-02-03T01:52:32.237Z,94.43
2019-02-03T01:53:32.439Z,94.62
2019-02-03T01:54:32.284Z,94.55
2019-02-03T01:55:32.236Z,94.47
2019-02-03T01:56:32.278Z,94.6
2019-02-03T01:57:32.243Z,94.6
2019-02-03T01:58:32.208Z,94.64
2019-02-03T01:59:32.241Z,94.91
2019-02-03T02:00:32.243Z,94.96
2019-02-03T02:01:32.561Z,95.16
2019-02-03T02:02:32.221Z,94.57
2019-02-03T02:03:32.216Z,94.85
2019-02-03T02:04:32.275Z,94.86
2019-02-03T02:05:32.216Z,94.74
2019-02-03T02:06:32.263Z,94.62
2019-02-03T02:07:32.222Z,94.72
2019-02-03T02:08:32.216Z,94.65
2019-02-03T02:09:32.210Z,94.65
2019-02-03T02:10:32.218Z,94.72
2019-02-03T02:11:32.672Z,94.55
2019-02-03T02:12:32.307Z,94.32
2019-02-03T02:13:32.316Z,94.42
2019-02-03T02:14:32.307Z,94.57
2019-02-03T02:15:32.239Z,94.63
2019-02-03T02:16:32.246Z,94.56
2019-02-03T02:17:34.006Z,94.5
2019-02-03T02:18:32.489Z,94.52
2019-02-03T02:19:32.189Z,94.49
2019-02-03T02:20:32.510Z,94.52
2019-02-03T02:21:32.240Z,94.54
2019-02-03T02:22:32.532Z,94.6
2019-02-03T02:23:32.256Z,94.56
2019-02-03T02:24:33.665Z,94.49
2019-02-03T02:25:32.304Z,94.58
2019-02-03T02:26:32.964Z,94.6
2019-02-03T02:27:32.206Z,94.32
2019-02-03T02:28:32.170Z,94.52
2019-02-03T02:29:32.237Z,94.5
2019-02-03T02:30:32.499Z,94.42
2019-02-03T02:31:32.218Z,94.29
2019-02-03T02:32:34.000Z,94.29
2019-02-03T02:33:32.153Z,94.42
2019-02-03T02:34:32.510Z,94.26
2019-02-03T02:35:32.217Z,94.31
2019-02-03T02:36:32.419Z,94.46
2019-02-03T02:37:32.155Z,94.29
2019-02-03T02:38:32.128Z,94.13
2019-02-03T02:39:35.236Z,94.21
2019-02-03T02:40:32.255Z,93.93
2019-02-03T02:41:32.456Z,93.96
2019-02-03T02:42:32.214Z,93.89
2019-02-03T02:43:32.175Z,94.02
2019-02-03T02:44:32.292Z,93.89
2019-02-03T02:45:32.178Z,94.03
2019-02-03T02:46:32.490Z,94.16
2019-02-03T02:47:32.202Z,94
2019-02-03T02:48:32.214Z,93.67
2019-02-03T02:49:32.342Z,94.02
2019-02-03T02:50:32.168Z,93.86
2019-02-03T02:51:33.947Z,93.81
2019-02-03T02:52:32.256Z,93.61
2019-02-03T02:53:33.959Z,93.66
2019-02-03T02:54:32.240Z,93.63
2019-02-03T02:55:32.386Z,93.65
2019-02-03T02:56:32.651Z,93.71
2019-02-03T02:57:33.035Z,93.52
2019-02-03T02:58:32.159Z,93.56
2019-02-03T02:59:32.141Z,93.49
2019-02-03T03:00:33.943Z,93.55
2019-02-03T03:01:32.397Z,93.55
2019-02-03T03:02:32.131Z,93.63
2019-02-03T03:03:32.411Z,93.58
2019-02-03T03:04:32.177Z,93.72
2019-02-03T03:05:32.331Z,93.43
2019-02-03T03:06:32.432Z,93.44
2019-02-03T03:07:32.191Z,93.38
2019-02-03T03:08:32.124Z,93.3
2019-02-03T03:09:32.452Z,93.37
2019-02-03T03:10:32.447Z,93.18
2019-02-03T03:11:32.317Z,93.3
2019-02-03T03:12:32.597Z,93.25
2019-02-03T03:13:32.235Z,93.35
2019-02-03T03:14:32.114Z,93.4
2019-02-03T03:15:32.292Z,93.33
2019-02-03T03:16:32.309Z,93.42
2019-02-03T03:17:32.222Z,93.25
2019-02-03T03:18:32.176Z,93.27
2019-02-03T03:19:32.105Z,93.28
2019-02-03T03:20:32.203Z,93.36
2019-02-03T03:21:32.725Z,93.56
2019-02-03T03:22:32.121Z,93.12
2019-02-03T03:23:32.355Z,93.22
2019-02-03T03:24:32.234Z,93.29
2019-02-03T03:25:32.085Z,93.06
2019-02-03T03:26:32.120Z,93.38
2019-02-03T03:27:32.682Z,92.99
2019-02-03T03:28:32.137Z,93.2
2019-02-03T03:29:33.933Z,92.94
2019-02-03T03:30:32.202Z,92.86
2019-02-03T03:31:32.357Z,92.87
2019-02-03T03:32:32.197Z,92.75
2019-02-03T03:33:32.137Z,92.87
2019-02-03T03:34:32.083Z,92.94
2019-02-03T03:35:34.230Z,92.94
2019-02-03T03:36:32.090Z,93.14
2019-02-03T03:37:32.198Z,93.14
2019-02-03T03:38:32.617Z,93.53
2019-02-03T03:39:32.240Z,93.42
2019-02-03T03:40:32.065Z,93.31
2019-02-03T03:41:32.080Z,93.35
2019-02-03T03:42:32.155Z,93.4
2019-02-03T03:43:32.105Z,93.76
2019-02-03T03:44:32.150Z,93.55
2019-02-03T03:45:32.279Z,93.65
2019-02-03T03:46:32.392Z,93.81
2019-02-03T03:47:32.115Z,93.66
2019-02-03T03:48:32.130Z,93.77
2019-02-03T03:49:32.167Z,93.81
2019-02-03T03:50:32.072Z,93.75
2019-02-03T03:51:32.094Z,94.04
2019-02-03T03:52:32.060Z,93.86
2019-02-03T03:53:32.436Z,93.64
2019-02-03T03:54:32.467Z,93.55
2019-02-03T03:55:32.048Z,93.74
2019-02-03T03:56:32.211Z,93.65
2019-02-03T03:57:32.115Z,94.17
2019-02-03T03:58:32.025Z,94
2019-02-03T03:59:32.210Z,93.95
2019-02-03T04:00:32.190Z,93.81
2019-02-03T04:01:32.108Z,94.07
2019-02-03T04:02:32.189Z,93.81
2019-02-03T04:03:32.149Z,93.65
2019-02-03T04:04:32.519Z,93.59
2019-02-03T04:05:32.039Z,93.45
2019-02-03T04:06:32.199Z,93.42
2019-02-03T04:07:32.128Z,93.39
2019-02-03T04:08:44.102Z,92.99
2019-02-03T04:09:32.127Z,93.37
2019-02-03T04:10:32.019Z,93.18
2019-02-03T04:11:32.073Z,92.98
2019-02-03T04:12:32.091Z,92.89
2019-02-03T04:13:32.693Z,93
2019-02-03T04:14:32.137Z,92.58
2019-02-03T04:15:32.288Z,92.75
2019-02-03T04:16:32.396Z,92.59
2019-02-03T04:17:32.067Z,92.45
2019-02-03T04:18:32.134Z,92.38
2019-02-03T04:19:32.454Z,92.23
2019-02-03T04:20:32.638Z,92.4
2019-02-03T04:21:32.747Z,91.91
2019-02-03T04:22:32.057Z,92.07
2019-02-03T04:23:32.009Z,91.93
2019-02-03T04:24:32.018Z,91.93
2019-02-03T04:25:31.999Z,91.64
2019-02-03T04:26:32.028Z,91.8
2019-02-03T04:27:32.265Z,91.66
2019-02-03T04:28:32.010Z,91.21
2019-02-03T04:29:32.327Z,91.29
2019-02-03T04:30:32.282Z,91.26
2019-02-03T04:31:32.034Z,90.94
2019-02-03T04:32:32.330Z,90.98
2019-02-03T04:33:31.990Z,91.01
2019-02-03T04:34:31.999Z,91.19
2019-02-03T04:35:32.415Z,90.45
2019-02-03T04:36:32.214Z,90.47
2019-02-03T04:37:32.247Z,90.54
2019-02-03T04:38:32.021Z,90.21
2019-02-03T04:39:32.243Z,90.18
2019-02-03T04:40:32.071Z,90.14
2019-02-03T04:41:31.989Z,89.91
2019-02-03T04:42:32.001Z,90.15
2019-02-03T04:43:32.269Z,90.07
2019-02-03T04:44:32.277Z,90.09
2019-02-03T04:45:31.975Z,89.63
2019-02-03T04:46:32.615Z,89.35
2019-02-03T04:47:32.126Z,89.05
2019-02-03T04:48:32.826Z,89.21
2019-02-03T04:49:32.336Z,89.15
2019-02-03T04:50:34.844Z,89.13
2019-02-03T04:51:32.052Z,88.53
2019-02-03T04:52:31.972Z,88.62
2019-02-03T04:53:32.260Z,88.16
2019-02-03T04:54:32.347Z,87.83
2019-02-03T04:55:33.270Z,87.76
2019-02-03T04:56:33.750Z,87.73
2019-02-03T04:57:32.155Z,87.75
2019-02-03T04:58:32.184Z,86.83
2019-02-03T04:59:32.171Z,87.22
2019-02-03T05:00:32.293Z,87.35
2019-02-03T05:01:32.022Z,86.89
2019-02-03T05:02:32.399Z,86.71
2019-02-03T05:03:32.010Z,86.95
2019-02-03T05:04:31.924Z,87.21
2019-02-03T05:05:31.959Z,86.7
2019-02-03T05:06:32.074Z,86.92
2019-02-03T05:07:32.023Z,87.04
2019-02-03T05:08:31.968Z,86.93
2019-02-03T05:09:32.343Z,86.77
2019-02-03T05:10:31.970Z,86.81
2019-02-03T05:11:31.943Z,86.94
2019-02-03T05:12:32.025Z,86.99
2019-02-03T05:13:32.396Z,86.94
2019-02-03T05:14:32.183Z,86.74
2019-02-03T05:15:31.978Z,86.45
2019-02-03T05:16:32.017Z,86.7
2019-02-03T05:17:31.930Z,86.79
2019-02-03T05:18:32.019Z,86.83
2019-02-03T05:19:32.037Z,86.48
2019-02-03T05:20:32.228Z,86.57
2019-02-03T05:21:32.123Z,86.57
2019-02-03T05:22:32.010Z,86.72
2019-02-03T05:23:31.958Z,86.65
2019-02-03T05:24:32.248Z,86.36
2019-02-03T05:25:32.252Z,86.22
2019-02-03T05:26:31.997Z,86.62
2019-02-03T05:27:32.034Z,86.44
2019-02-03T05:28:31.907Z,86.51
2019-02-03T05:29:31.988Z,86.58
2019-02-03T05:30:32.045Z,86.13
2019-02-03T05:31:32.000Z,86.24
2019-02-03T05:32:32.039Z,85.81
2019-02-03T05:33:32.030Z,85.51
2019-02-03T05:34:32.212Z,85.8
2019-02-03T05:35:32.115Z,85.71
2019-02-03T05:36:31.974Z,85.79
2019-02-03T05:37:32.109Z,85.8
2019-02-03T05:38:31.999Z,85.92
2019-02-03T05:39:32.151Z,85.76
2019-02-03T05:40:32.019Z,85.48
2019-02-03T05:41:32.069Z,85.16
2019-02-03T05:42:31.883Z,85.42
2019-02-03T05:43:33.686Z,85.07
2019-02-03T05:44:32.009Z,84.83
2019-02-03T05:45:32.085Z,84.88
2019-02-03T05:46:31.982Z,84.94
2019-02-03T05:47:32.307Z,84.57
2019-02-03T05:48:32.003Z,84.5
2019-02-03T05:49:32.007Z,84.56
2019-02-03T05:50:32.330Z,84.39
2019-02-03T05:51:32.657Z,84.18
2019-02-03T05:52:32.038Z,84.32
2019-02-03T05:53:31.993Z,84.39
2019-02-03T05:54:32.018Z,84.05
2019-02-03T05:55:32.157Z,83.94
2019-02-03T05:56:32.495Z,83.67
2019-02-03T05:57:32.096Z,83.88
2019-02-03T05:58:31.883Z,83.51
2019-02-03T05:59:31.838Z,83.3
2019-02-03T06:00:32.099Z,82.8
2019-02-03T06:01:32.640Z,82.91
2019-02-03T06:02:31.962Z,82.81
2019-02-03T06:03:32.113Z,82.77
2019-02-03T06:04:31.962Z,82.83
2019-02-03T06:05:32.012Z,82.66
2019-02-03T06:06:31.862Z,83.3
2019-02-03T06:07:32.405Z,83.18
2019-02-03T06:08:32.360Z,82.96
2019-02-03T06:09:36.475Z,83.09
2019-02-03T06:10:31.940Z,82.86
2019-02-03T06:11:31.939Z,82.5
2019-02-03T06:12:32.171Z,82.65
2019-02-03T06:13:31.996Z,82.93
2019-02-03T06:14:32.278Z,82.27
2019-02-03T06:15:32.213Z,82.53
2019-02-03T06:16:31.914Z,82.29
2019-02-03T06:17:31.866Z,82.39
2019-02-03T06:18:32.534Z,82.5
2019-02-03T06:19:32.350Z,82.18
2019-02-03T06:20:32.454Z,82.14
2019-02-03T06:21:31.942Z,82.02
2019-02-03T06:22:32.376Z,82.3
2019-02-03T06:23:32.240Z,82.11
2019-02-03T06:24:32.294Z,81.95
2019-02-03T06:25:32.382Z,82.35
2019-02-03T06:26:32.082Z,82.44
2019-02-03T06:27:32.579Z,82.51
2019-02-03T06:28:32.100Z,82.07
2019-02-03T06:29:32.096Z,81.74
2019-02-03T06:30:32.500Z,82.17
2019-02-03T06:31:33.699Z,81.93
2019-02-03T06:32:31.912Z,81.75
2019-02-03T06:33:32.392Z,81.69
2019-02-03T06:34:32.117Z,81.66
2019-02-03T06:35:31.948Z,81.73
2019-02-03T06:36:32.111Z,81.94
2019-02-03T06:37:31.956Z,81.88
2019-02-03T06:38:32.288Z,81.92
2019-02-03T06:39:31.940Z,81.94
2019-02-03T06:40:31.945Z,81.78
2019-02-03T06:41:32.076Z,81.62
2019-02-03T06:42:32.098Z,81.76
2019-02-03T06:44:31.792Z,81.68
2019-02-03T06:45:33.730Z,81.78
2019-02-03T06:46:32.011Z,81.67
2019-02-03T06:47:32.211Z,81.68
2019-02-03T06:48:32.023Z,81.69
2019-02-03T06:49:32.222Z,81.61
2019-02-03T06:50:32.054Z,81.24
2019-02-03T06:51:32.289Z,81.2
2019-02-03T06:52:31.853Z,81.41
2019-02-03T06:53:32.161Z,81.27
2019-02-03T06:54:32.213Z,81.12
2019-02-03T06:55:31.981Z,81.01
2019-02-03T06:56:31.810Z,80.89
2019-02-03T06:57:32.093Z,81.19
2019-02-03T06:58:32.265Z,81.08
2019-02-03T06:59:32.171Z,80.93
2019-02-03T07:00:32.048Z,80.95
2019-02-03T07:01:31.945Z,80.99
2019-02-03T07:02:32.045Z,81.18
2019-02-03T07:03:31.876Z,81.14
2019-02-03T07:04:32.034Z,81.02
2019-02-03T07:05:31.828Z,81.02
2019-02-03T07:06:32.226Z,80.86
2019-02-03T07:07:31.990Z,80.86
2019-02-03T07:08:31.925Z,80.84
2019-02-03T07:09:31.929Z,80.82
2019-02-03T07:10:31.793Z,80.69
2019-02-03T07:11:31.778Z,80.68
2019-02-03T07:12:31.942Z,81.13
2019-02-03T07:13:31.797Z,81.04
2019-02-03T07:14:31.755Z,81.11
2019-02-03T07:15:32.109Z,80.96
2019-02-03T07:16:40.397Z,80.59
2019-02-03T07:17:32.109Z,80.5
2019-02-03T07:18:31.847Z,80.22
2019-02-03T07:19:32.232Z,80.46
2019-02-03T07:20:31.964Z,80.14
2019-02-03T07:21:32.040Z,79.68
2019-02-03T07:22:32.237Z,79.79
2019-02-03T07:23:32.038Z,79.61
2019-02-03T07:24:31.869Z,79.85
2019-02-03T07:25:31.947Z,79.56
2019-02-03T07:26:31.742Z,79
2019-02-03T07:27:31.800Z,79.15
2019-02-03T07:28:31.971Z,79.26
2019-02-03T07:29:32.301Z,78.99
2019-02-03T07:30:31.851Z,79.34
2019-02-03T07:31:31.727Z,78.62
2019-02-03T07:32:31.967Z,78.39
2019-02-03T07:33:31.681Z,78.94
2019-02-03T07:34:32.293Z,78.67
2019-02-03T07:35:31.707Z,78.15
2019-02-03T07:36:32.125Z,78.14
2019-02-03T07:37:31.842Z,77.82
2019-02-03T07:38:32.042Z,77.76
2019-02-03T07:39:32.152Z,77.78
2019-02-03T07:40:31.874Z,77.63
2019-02-03T07:41:31.704Z,77.89
2019-02-03T07:42:31.966Z,77.99
2019-02-03T07:43:31.969Z,77.65
2019-02-03T07:44:33.004Z,77.81
2019-02-03T07:45:31.798Z,77.51
2019-02-03T07:46:32.193Z,77.72
2019-02-03T07:47:32.407Z,77.81
2019-02-03T07:48:33.961Z,77.74
2019-02-03T07:49:32.153Z,77.6
2019-02-03T07:50:31.941Z,77.76
2019-02-03T07:51:32.124Z,77.98
2019-02-03T07:52:31.711Z,77.73
2019-02-03T07:53:32.046Z,77.96
2019-02-03T07:54:31.730Z,77.3
2019-02-03T07:55:31.667Z,77.7
2019-02-03T07:56:31.658Z,77.21
2019-02-03T07:57:31.991Z,77.04
2019-02-03T07:58:31.714Z,77.5
2019-02-03T07:59:31.953Z,76.98
2019-02-03T08:00:31.886Z,77.27
2019-02-03T08:01:31.791Z,77.09
2019-02-03T08:02:32.594Z,77.54
2019-02-03T08:03:31.946Z,77.21
2019-02-03T08:04:32.328Z,77.5
2019-02-03T08:05:32.337Z,77.48
2019-02-03T08:06:32.027Z,77.19
2019-02-03T08:07:31.881Z,77.2
2019-02-03T08:08:31.707Z,77.02
2019-02-03T08:09:32.453Z,77.22
2019-02-03T08:10:31.751Z,76.86
2019-02-03T08:11:31.649Z,77.39
2019-02-03T08:12:31.985Z,77.12
2019-02-03T08:13:31.979Z,77.51
2019-02-03T08:14:32.098Z,77.46
2019-02-03T08:15:33.219Z,77.44
2019-02-03T08:16:32.060Z,77.53
2019-02-03T08:17:31.626Z,77.71
2019-02-03T08:18:31.912Z,77.37
2019-02-03T08:19:32.083Z,77.58
2019-02-03T08:20:31.617Z,77.76
2019-02-03T08:21:32.030Z,77.94
2019-02-03T08:22:31.692Z,78.24
2019-02-03T08:23:31.837Z,77.96
2019-02-03T08:24:31.723Z,77.67
2019-02-03T08:25:31.607Z,77.86
2019-02-03T08:26:31.718Z,78
2019-02-03T08:27:31.682Z,78.05
2019-02-03T08:28:32.598Z,78.04
2019-02-03T08:29:31.830Z,78.11
2019-02-03T08:30:31.637Z,78.46
2019-02-03T08:31:31.642Z,78.82
2019-02-03T08:32:31.851Z,78.7
2019-02-03T08:33:33.447Z,78.97
2019-02-03T08:34:31.664Z,79.02
2019-02-03T08:35:32.824Z,79.38
2019-02-03T08:36:32.492Z,79.5
2019-02-03T08:37:31.631Z,79.47
2019-02-03T08:38:31.690Z,79.6
2019-02-03T08:39:31.824Z,79.71
2019-02-03T08:40:36.876Z,79.71
2019-02-03T08:41:31.619Z,80.21
2019-02-03T08:42:35.013Z,79.81
2019-02-03T08:43:31.700Z,79.87
2019-02-03T08:44:32.048Z,80.19
2019-02-03T08:45:31.955Z,80.28
2019-02-03T08:46:31.610Z,80.42
2019-02-03T08:47:32.161Z,80.62
2019-02-03T08:48:31.642Z,80.5
2019-02-03T08:49:32.186Z,80.55
2019-02-03T08:50:32.525Z,80.62
2019-02-03T08:51:32.309Z,80.78
2019-02-03T08:52:31.834Z,80.86
2019-02-03T08:53:31.614Z,80.89
2019-02-03T08:54:31.616Z,81.21
2019-02-03T08:55:31.605Z,81.19
2019-02-03T08:56:31.700Z,81.26
2019-02-03T08:57:38.657Z,81.41
2019-02-03T08:58:32.786Z,81.67
2019-02-03T08:59:32.610Z,81.59
2019-02-03T09:00:31.800Z,81.61
2019-02-03T09:01:31.658Z,81.62
2019-02-03T09:02:32.580Z,81.61
2019-02-03T09:03:31.733Z,81.33
2019-02-03T09:04:31.596Z,81.53
2019-02-03T09:05:31.638Z,81.69
2019-02-03T09:06:31.660Z,81.98
2019-02-03T09:07:31.765Z,81.71
2019-02-03T09:08:32.042Z,81.62
2019-02-03T09:10:31.628Z,81.62
2019-02-03T09:11:31.683Z,81.61
2019-02-03T09:12:33.300Z,81.56
2019-02-03T09:13:32.187Z,81.56
2019-02-03T09:14:31.582Z,81.62
2019-02-03T09:15:31.904Z,81.1
2019-02-03T09:16:31.945Z,81.07
2019-02-03T09:17:32.025Z,80.94
2019-02-03T09:18:31.567Z,81.19
2019-02-03T09:19:31.831Z,81.11
2019-02-03T09:20:31.617Z,81.3
2019-02-03T09:21:31.641Z,81.08
2019-02-03T09:22:31.712Z,81.23
2019-02-03T09:23:31.612Z,81.1
2019-02-03T09:24:31.671Z,80.76
2019-02-03T09:25:31.518Z,81.03
2019-02-03T09:26:32.538Z,80.49
2019-02-03T09:27:32.084Z,80.34
2019-02-03T09:28:31.689Z,80.77
2019-02-03T09:29:33.103Z,81.18
2019-02-03T09:30:32.046Z,80.48
2019-02-03T09:31:31.687Z,79.87
2019-02-03T09:32:33.650Z,79.87
2019-02-03T09:33:31.892Z,80.11
2019-02-03T09:34:31.769Z,80.02
2019-02-03T09:35:31.766Z,80.24
2019-02-03T09:36:31.525Z,80.22
2019-02-03T09:37:31.537Z,79.76
2019-02-03T09:38:31.682Z,80.04
2019-02-03T09:39:31.615Z,80.03
2019-02-03T09:40:31.698Z,80.36
2019-02-03T09:41:31.785Z,80.35
2019-02-03T09:42:31.997Z,79.71
2019-02-03T09:43:31.740Z,80.08
2019-02-03T09:45:31.504Z,79.67
2019-02-03T09:46:34.918Z,79.97
2019-02-03T09:47:31.567Z,80.11
2019-02-03T09:48:31.520Z,80.08
2019-02-03T09:49:31.503Z,80.1
2019-02-03T09:50:31.933Z,79.67
2019-02-03T09:51:31.693Z,79.8
2019-02-03T09:52:31.791Z,79.92
2019-02-03T09:53:31.817Z,79.94
2019-02-03T09:54:31.591Z,79.5
2019-02-03T09:55:31.913Z,79.56
2019-02-03T09:56:31.672Z,79.64
2019-02-03T09:57:31.546Z,79.69
2019-02-03T09:58:32.373Z,79.62
2019-02-03T09:59:31.557Z,79.58
2019-02-03T10:00:31.722Z,79.76
2019-02-03T10:01:33.559Z,79.79
2019-02-03T10:02:31.609Z,79.83
2019-02-03T10:03:31.510Z,79.68
2019-02-03T10:04:31.457Z,79.68
2019-02-03T10:05:31.564Z,79.67
2019-02-03T10:06:31.544Z,79.87
2019-02-03T10:07:31.822Z,79.47
2019-02-03T10:08:40.227Z,79.51
2019-02-03T10:09:33.410Z,79.53
2019-02-03T10:10:31.556Z,79.62
2019-02-03T10:11:31.658Z,79.99
2019-02-03T10:12:31.516Z,79.7
2019-02-03T10:13:32.875Z,79.51
2019-02-03T10:14:33.937Z,79.02
2019-02-03T10:15:32.528Z,79.08
2019-02-03T10:16:31.634Z,78.95
2019-02-03T10:17:31.767Z,78.74
2019-02-03T10:18:31.478Z,79.02
2019-02-03T10:19:31.456Z,79.3
2019-02-03T10:20:31.442Z,78.8
2019-02-03T10:21:32.252Z,78.32
2019-02-03T10:22:31.451Z,78.05
2019-02-03T10:23:31.668Z,77.89
2019-02-03T10:24:41.871Z,78.53
2019-02-03T10:25:31.510Z,78.12
2019-02-03T10:26:31.500Z,77.45
2019-02-03T10:27:31.464Z,77.56
2019-02-03T10:28:31.711Z,77.79
2019-02-03T10:29:31.517Z,77.49
2019-02-03T10:30:31.436Z,77.6
2019-02-03T10:31:31.708Z,77.49
2019-02-03T10:32:31.467Z,77.64
2019-02-03T10:33:31.561Z,77.94
2019-02-03T10:34:31.575Z,77.7
2019-02-03T10:35:31.443Z,77.26
2019-02-03T10:36:31.605Z,76.73
2019-02-03T10:37:31.467Z,77.13
2019-02-03T10:38:31.450Z,77.24
2019-02-03T10:39:33.245Z,77.16
2019-02-03T10:40:31.868Z,76.82
2019-02-03T10:41:31.543Z,76.93
2019-02-03T10:42:31.632Z,76.85
2019-02-03T10:43:31.672Z,77.03
2019-02-03T10:44:31.491Z,77.13
2019-02-03T10:45:33.267Z,77.61
2019-02-03T10:46:31.653Z,76.83
2019-02-03T10:47:31.443Z,76.85
2019-02-03T10:48:31.645Z,76.81
2019-02-03T10:49:31.678Z,76.6
2019-02-03T10:50:31.608Z,76.74
2019-02-03T10:51:31.534Z,76.71
2019-02-03T10:52:31.440Z,76.6
2019-02-03T10:53:31.406Z,76.39
2019-02-03T10:54:31.761Z,76.62
2019-02-03T10:55:31.392Z,76.99
2019-02-03T10:56:31.510Z,76.45
2019-02-03T10:57:31.382Z,76.69
2019-02-03T10:58:31.643Z,76.88
2019-02-03T10:59:31.579Z,76.93
2019-02-03T11:00:31.543Z,76.72
2019-02-03T11:01:31.612Z,77.02
2019-02-03T11:02:31.702Z,77.29
2019-02-03T11:03:31.549Z,77.37
2019-02-03T11:04:31.508Z,77.33
2019-02-03T11:05:31.457Z,77.11
2019-02-03T11:06:31.492Z,76.11
2019-02-03T11:07:31.545Z,76.44
2019-02-03T11:08:32.066Z,75.99
2019-02-03T11:09:31.698Z,75.94
2019-02-03T11:10:32.075Z,75.84
2019-02-03T11:11:36.514Z,75.84
2019-02-03T11:12:31.580Z,76.04
2019-02-03T11:13:31.647Z,75.84
2019-02-03T11:14:31.391Z,75.58
2019-02-03T11:15:31.540Z,75.48
2019-02-03T11:16:31.384Z,75.52
2019-02-03T11:17:32.254Z,75.65
2019-02-03T11:18:31.358Z,75.5
2019-02-03T11:19:31.507Z,75.2
2019-02-03T11:20:31.406Z,75.38
2019-02-03T11:21:32.250Z,75.27
2019-02-03T11:22:31.401Z,75.57
2019-02-03T11:23:31.968Z,75.87
2019-02-03T11:24:31.492Z,75.87
2019-02-03T11:25:32.061Z,75.55
2019-02-03T11:26:31.537Z,75.23
2019-02-03T11:27:31.500Z,74.97
2019-02-03T11:28:31.397Z,74.77
2019-02-03T11:29:31.566Z,75.02
2019-02-03T11:30:31.655Z,75.42
2019-02-03T11:31:31.440Z,75.04
2019-02-03T11:32:31.472Z,75.3
2019-02-03T11:33:31.426Z,75.5
2019-02-03T11:34:31.527Z,75.44
2019-02-03T11:35:31.332Z,74.94
2019-02-03T11:36:31.690Z,75.19
2019-02-03T11:37:31.421Z,74.36
2019-02-03T11:38:31.863Z,74.9
2019-02-03T11:39:32.027Z,74.62
2019-02-03T11:40:31.449Z,74.93
2019-02-03T11:41:31.411Z,75.24
2019-02-03T11:42:31.687Z,75.04
2019-02-03T11:43:31.313Z,75.39
2019-02-03T11:44:31.616Z,75.48
2019-02-03T11:45:31.660Z,75.38
2019-02-03T11:46:31.481Z,75.74
2019-02-03T11:47:31.361Z,75.62
2019-02-03T11:48:31.439Z,75.53
2019-02-03T11:49:32.019Z,76.03
2019-02-03T11:50:32.041Z,75.4
2019-02-03T11:51:31.417Z,75.43
2019-02-03T11:52:31.404Z,75.49
2019-02-03T11:53:31.715Z,75.94
2019-02-03T11:54:31.622Z,76.1
2019-02-03T11:55:31.444Z,76.24
2019-02-03T11:56:31.312Z,76.18
2019-02-03T11:57:31.534Z,76.47
2019-02-03T11:58:31.361Z,76.87
2019-02-03T11:59:31.712Z,76.72
2019-02-03T12:00:31.850Z,76.55
2019-02-03T12:01:31.479Z,76.21
2019-02-03T12:02:41.629Z,76.62
2019-02-03T12:03:32.193Z,76.79
2019-02-03T12:04:31.483Z,77.13
2019-02-03T12:05:31.689Z,77.14
2019-02-03T12:06:32.015Z,76.48
2019-02-03T12:07:31.304Z,76.28
2019-02-03T12:08:31.432Z,75.79
2019-02-03T12:09:31.761Z,76.37
2019-02-03T12:10:31.641Z,76.06
2019-02-03T12:11:31.639Z,76.14
2019-02-03T12:12:31.639Z,75.86
2019-02-03T12:13:31.304Z,75.63
2019-02-03T12:14:31.334Z,75.87
2019-02-03T12:15:32.261Z,75.97
2019-02-03T12:16:31.700Z,75.76
2019-02-03T12:17:31.416Z,75.56
2019-02-03T12:18:32.414Z,75.5
2019-02-03T12:19:31.498Z,75.29
2019-02-03T12:20:31.626Z,75.43
2019-02-03T12:21:31.315Z,75.89
2019-02-03T12:22:31.264Z,75.78
2019-02-03T12:23:31.271Z,75.89
2019-02-03T12:24:31.475Z,75.82
2019-02-03T12:25:31.370Z,75.31
2019-02-03T12:26:31.290Z,75.58
2019-02-03T12:27:31.561Z,75.91
2019-02-03T12:28:31.307Z,76.19
2019-02-03T12:29:31.314Z,76
2019-02-03T12:30:31.320Z,75.53
2019-02-03T12:31:31.298Z,75.69
2019-02-03T12:32:31.306Z,76.16
2019-02-03T12:33:31.283Z,76.26
2019-02-03T12:34:31.278Z,76.44
2019-02-03T12:35:31.283Z,76.6
2019-02-03T12:36:31.280Z,76.62
2019-02-03T12:37:31.298Z,76.64
2019-02-03T12:38:31.286Z,76.91
2019-02-03T12:39:31.314Z,77.39
2019-02-03T12:40:31.447Z,77.19
2019-02-03T12:41:31.267Z,77.25
2019-02-03T12:42:31.320Z,77.31
2019-02-03T12:43:33.161Z,77.61
2019-02-03T12:44:32.159Z,77.21
2019-02-03T12:45:31.250Z,77.41
2019-02-03T12:46:31.479Z,77.29
2019-02-03T12:47:31.345Z,78.13
2019-02-03T12:48:31.295Z,77.89
2019-02-03T12:49:31.279Z,78.32
2019-02-03T12:50:31.648Z,79.02
2019-02-03T12:51:31.746Z,78.62
2019-02-03T12:52:31.391Z,79.36
2019-02-03T12:53:32.246Z,79.92
2019-02-03T12:54:31.384Z,79.46
2019-02-03T12:55:32.318Z,79.34
2019-02-03T12:56:31.532Z,78.87
2019-02-03T12:57:31.813Z,79.27
2019-02-03T12:58:31.753Z,79.04